Airfield :
LOGIN :

Register | Disclaimer

   EN    FR    IT 

 










Legend :    VFR   Marginal VFR   IFR   Intensive IFR   Very Intensive IFR
Visi :
Ceiling :
>= 8 km
>= 3000ft
5 to 8 km
1000 to 3000 ft
1500m to 5 km
500 to 1000 ft
800 to 1500m
200 to 500 ft
< 800m
< 200 ft
Symbols :   Thunderstorms  Fog  Heavy snow  Heavy precipitations  Wind > 20 kt
SIGMETs :     Misc.  Thunderstorms  Icing  Turbulence  Mountain Waves  Volcanic Ashes






- Airport Elevation : 1989 ft
- IATA code : KLV


LKKV - Karlovy Vary

CURRENT METAR :
  • 171830Z 26003KT 230V290 9999 SCT049 07/05 Q1007

EXPIRED METARs :
  • 171800Z 27009KT 9999 -SHRA FEW018 BKN038 08/04 Q1007
  • 171730Z 26012KT 210V290 9999 -SHRA SCT010CB BKN044 10/03 Q1007
  • 171723Z 26011G21KT 210V290 9999 -SHRA SCT031TCU BKN045 10/03 Q1007 RMK REG QNH 1002
  • 171700Z 26008KT 210V300 9999 SCT041TCU 11/03 Q1007
  • 171630Z 26009KT 220V290 9999 SCT022TCU 11/05 Q1006
  • 171600Z 26006KT 200V290 9999 FEW049 12/04 Q1006
  • 171530Z 25008KT 190V280 9999 -SHRA SCT030CB BKN042 09/04 Q1007

TAF TAF LKKV
Valid from the 17 at 18:00 until the 19 at 00:00 UTC


171700Z 1718/1900 25008KT 9999 SCT030 BKN040
TEMPO 1718/1720 SHRA BKN030CB
TEMPO 1720/1809 -RA BKN014
TEMPO 1809/1821 SHRA BKN020CB
PROB40
TEMPO 1810/1819 28012G26KT 3000 TSRA BKN012CB
BECMG 1821/1823 5000 BR BKN007
TEMPO 1823/1900 2500 BR BKN003



MET'MAP, your aeronautical weather chart ! - Copyright ORBIFLY December 2007 - Disclaimer

ORBIFLY MET'MAP TEAM :

Programming & Development : Alexandra Zaïnal
Concept & original design : Baudouin d'Aumeries
Assistance for programming : Marc-Olivier Méhu
Technical & hardware support : Manuel Goepfert

Contact : metmap@orbifly.com




SOURCES & CREDITS :

   NOAA